Time;durP1;ratioP1;P1;durP2;ratioP2;P2;SDS_P1;SDS_P2;PMS_P1;PMS_P2;Temp;Humidity;BMP_temperature;BMP_pressure;BME280_temperature;BME280_humidity;BME280_pressure;Samples;Min_cycle;Max_cycle;Signal;HPM_P1;HPM_P2
2022/10/19 00:01:42;;;;;;;;;;;;;;;-144.99;100.00;52374.72;5063166;28;20549;-71
2022/10/19 00:04:10;;;;;;;;;;;;;;;-144.99;100.00;52419.56;5073590;28;19928;-71
2022/10/19 00:06:36;;;;;;;;;;;;;;;-144.99;100.00;52413.44;5066046;28;20422;-74
2022/10/19 00:09:04;;;;;;;;;;;;;;;-144.99;100.00;52382.88;5073490;28;19924;-74
2022/10/19 00:11:31;;;;;;;;;;;;;;;-144.99;100.00;52415.47;5074258;28;19924;-74
2022/10/19 00:13:58;;;;;;;;;;;;;;;-144.99;100.00;52417.53;5073916;28;19951;-75
2022/10/19 00:16:26;;;;;;;;;;;;;;;-144.99;100.00;52419.56;5057463;28;19955;-74
2022/10/19 00:18:55;;;;;;;;;;;;;;;-144.99;100.00;52435.88;5072761;28;19970;-75
2022/10/19 00:21:23;;;;;;;;;;;;;;;-144.99;100.00;52437.91;5073010;28;19975;-74
2022/10/19 00:23:49;;;;;;;;;;;;;;;-144.99;100.00;52399.19;5071635;28;19960;-74
2022/10/19 00:26:16;;;;;;;;;;;;;;;-144.99;100.00;52435.88;5069913;28;20437;-75
2022/10/19 00:28:43;;;;;;;;;;;;;;;-144.99;100.00;52403.25;5066523;28;20434;-75
2022/10/19 00:31:10;;;;;;;;;;;;;;;-144.99;100.00;52393.06;5072712;28;19931;-75
2022/10/19 00:33:37;;;;;;;;;;;;;;;-144.99;100.00;52439.94;5071735;28;20016;-74
2022/10/19 00:36:04;;;;;;;;;;;;;;;-144.99;100.00;52419.56;5065291;28;19924;-74
2022/10/19 00:38:32;;;;;;;;;;;;;;;-144.99;100.00;52386.94;5061452;28;19925;-75
2022/10/19 00:40:58;;;;;;;;;;;;;;;-144.99;100.00;52423.63;5067852;28;20568;-73
2022/10/19 00:43:26;;;;;;;;;;;;;;;-144.99;100.00;52427.72;5071722;28;20383;-73
2022/10/19 00:45:53;;;;;;;;;;;;;;;-144.99;100.00;52399.19;5073824;28;19932;-73
2022/10/19 00:48:22;;;;;;;;;;;;;;;-144.99;100.00;52431.78;5070180;28;20406;-75
2022/10/19 00:50:49;;;;;;;;;;;;;;;-144.99;100.00;52407.31;5072825;28;19940;-75
2022/10/19 00:53:16;;;;;;;;;;;;;;;-144.99;100.00;52423.63;5069322;28;19943;-74
2022/10/19 00:55:44;;;;;;;;;;;;;;;-144.99;100.00;52407.31;5075141;28;19928;-73
2022/10/19 00:58:10;;;;;;;;;;;;;;;-144.99;100.00;52413.44;5075742;28;20420;-72
2022/10/19 01:00:37;;;;;;;;;;;;;;;-144.99;100.00;52386.94;5056817;28;19939;-74
2022/10/19 01:03:04;;;;;;;;;;;;;;;-144.99;100.00;52386.94;5070885;28;19947;-74
2022/10/19 01:05:32;;;;;;;;;;;;;;;-144.99;100.00;52411.41;5068339;28;19959;-74
2022/10/19 01:07:58;;;;;;;;;;;;;;;-144.99;100.00;52427.72;5059687;28;20342;-74
2022/10/19 01:10:31;;;;;;;;;;;;;;;-144.99;100.00;52435.88;5075432;28;19932;-74
2022/10/19 01:13:06;;;;;;;;;;;;;;;-144.99;100.00;52435.88;5072108;28;20326;-73
2022/10/19 01:15:36;;;;;;;;;;;;;;;-144.99;100.00;52407.31;5071191;28;19925;-74
2022/10/19 01:18:04;;;;;;;;;;;;;;;-144.99;100.00;52415.47;5072048;28;20342;-73
2022/10/19 01:20:50;;;;;;;;;;;;;;;-144.99;100.00;52413.44;5070845;28;20346;-73
2022/10/19 01:23:37;;;;;;;;;;;;;;;-144.99;100.00;52460.31;5071115;28;19932;-73
2022/10/19 01:26:11;;;;;;;;;;;;;;;-144.99;100.00;52397.13;5072266;28;19924;-73
2022/10/19 01:28:45;;;;;;;;;;;;;;;-144.99;100.00;52435.88;5072679;28;19935;-74
2022/10/19 01:31:19;;;;;;;;;;;;;;;-144.99;100.00;52415.47;5065192;28;19958;-74
2022/10/19 01:33:48;;;;;;;;;;;;;;;-144.99;100.00;52395.09;5070322;28;19925;-73
2022/10/19 01:36:20;;;;;;;;;;;;;;;-144.99;100.00;52407.31;5074568;28;20430;-73
2022/10/19 01:38:51;;;;;;;;;;;;;;;-144.99;100.00;52427.72;5061359;28;20015;-73
2022/10/19 01:41:20;;;;;;;;;;;;;;;-144.99;100.00;52421.59;5064067;28;20308;-73
2022/10/19 01:43:51;;;;;;;;;;;;;;;-144.99;100.00;52399.19;5070546;28;20257;-73
2022/10/19 01:46:21;;;;;;;;;;;;;;;-144.99;100.00;52399.19;5071392;28;20318;-73
2022/10/19 01:48:51;;;;;;;;;;;;;;;-144.99;100.00;52407.31;5066375;28;19924;-72
2022/10/19 01:51:18;;;;;;;;;;;;;;;-144.99;100.00;52395.09;5068090;28;20413;-73
2022/10/19 01:53:47;;;;;;;;;;;;;;;-144.99;100.00;52439.94;5064083;28;19925;-71
2022/10/19 01:56:14;;;;;;;;;;;;;;;-144.99;99.86;52439.94;5071737;28;19947;-71
2022/10/19 01:58:44;;;;;;;;;;;;;;;-144.99;99.61;52417.53;5058706;28;19958;-71
2022/10/19 02:01:11;;;;;;;;;;;;;;;-144.99;98.97;52431.78;5058391;28;19964;-71
2022/10/19 02:03:40;;;;;;;;;;;;;;;-144.99;97.95;52431.78;5069234;28;19924;-70
2022/10/19 02:06:07;;;;;;;;;;;;;;;-144.99;97.64;52417.53;5063655;28;19924;-71
2022/10/19 02:08:37;;;;;;;;;;;;;;;-144.99;97.62;52362.50;5066053;28;20331;-71
2022/10/19 02:11:04;;;;;;;;;;;;;;;-144.99;95.35;52407.31;5063455;28;19936;-71
2022/10/19 02:13:31;;;;;;;;;;;;;;;-144.99;94.84;52427.72;5068060;28;19936;-70
2022/10/19 02:15:59;;;;;;;;;;;;;;;-144.99;94.67;52415.47;5068490;28;20418;-71
2022/10/19 02:18:28;;;;;;;;;;;;;;;-144.99;94.75;52407.31;5065813;28;19924;-72
2022/10/19 02:20:56;;;;;;;;;;;;;;;-144.99;94.80;52419.56;5067869;28;19950;-73
2022/10/19 02:23:26;;;;;;;;;;;;;;;-144.99;94.51;52411.41;5065419;28;19965;-73
2022/10/19 02:25:52;;;;;;;;;;;;;;;-144.99;93.99;52456.25;5069674;28;19946;-74
2022/10/19 02:28:19;;;;;;;;;;;;;;;-144.99;93.44;52454.22;5071223;28;19959;-72
2022/10/19 02:30:45;;;;;;;;;;;;;;;-144.99;93.03;52415.47;5067430;28;19970;-73
2022/10/19 02:33:12;;;;;;;;;;;;;;;-144.99;92.63;52427.72;5068988;28;20351;-73
2022/10/19 02:35:38;;;;;;;;;;;;;;;-144.99;92.01;52441.97;5069363;28;19960;-73
2022/10/19 02:38:07;;;;;;;;;;;;;;;-144.99;91.68;52423.63;5069231;28;19924;-73
2022/10/19 02:40:37;;;;;;;;;;;;;;;-144.99;91.25;52435.88;5062606;28;19936;-73
2022/10/19 02:43:05;;;;;;;;;;;;;;;-144.99;90.57;52391.03;5068331;28;19943;-73
2022/10/19 02:45:33;;;;;;;;;;;;;;;-144.99;90.21;52407.31;5069684;28;19947;-73
2022/10/19 02:48:02;;;;;;;;;;;;;;;-144.99;89.72;52415.47;5064599;28;19966;-73
2022/10/19 02:50:28;;;;;;;;;;;;;;;-144.99;88.63;52399.19;5055605;28;19924;-73
2022/10/19 02:52:54;;;;;;;;;;;;;;;-144.99;88.02;52415.47;5055167;28;19982;-73
2022/10/19 02:55:22;;;;;;;;;;;;;;;-144.99;87.30;52448.09;5061370;28;19925;-73
2022/10/19 02:57:48;;;;;;;;;;;;;;;-144.99;86.67;52439.94;5068178;28;20283;-72
2022/10/19 03:00:15;;;;;;;;;;;;;;;-144.99;86.23;52407.31;5068946;28;19939;-73
2022/10/19 03:02:41;;;;;;;;;;;;;;;-144.99;86.13;52466.44;5060766;28;19939;-73
2022/10/19 03:05:08;;;;;;;;;;;;;;;-144.99;86.00;52444.03;5067863;28;19937;-73
2022/10/19 03:07:35;;;;;;;;;;;;;;;-144.99;86.27;52427.72;5068107;28;20030;-72
2022/10/19 03:10:01;;;;;;;;;;;;;;;-144.99;86.46;52425.66;5057846;28;20467;-72
2022/10/19 03:12:29;;;;;;;;;;;;;;;-144.99;86.74;52431.78;5060607;28;19990;-72
2022/10/19 03:14:55;;;;;;;;;;;;;;;-144.99;86.74;52399.19;5068771;28;19972;-72
2022/10/19 03:17:22;;;;;;;;;;;;;;;-144.99;86.47;52411.41;5066708;28;20050;-72
2022/10/19 03:19:48;;;;;;;;;;;;;;;-144.99;86.89;52452.16;5057780;28;20064;-71
2022/10/19 03:22:14;;;;;;;;;;;;;;;-144.99;87.31;52448.09;5063261;28;19949;-72
2022/10/19 03:24:41;;;;;;;;;;;;;;;-144.99;87.55;52450.13;5072006;28;20029;-72
2022/10/19 03:27:07;;;;;;;;;;;;;;;-144.99;87.94;52444.03;5062788;28;19928;-74
2022/10/19 03:29:35;;;;;;;;;;;;;;;-144.99;87.99;52444.03;5063153;28;19943;-73
2022/10/19 03:32:01;;;;;;;;;;;;;;;-144.99;88.26;52450.13;5068618;28;19944;-72
2022/10/19 03:34:27;;;;;;;;;;;;;;;-144.99;88.37;52448.09;5070981;28;19944;-73
2022/10/19 03:36:55;;;;;;;;;;;;;;;-144.99;88.32;52415.47;5055061;28;19956;-73
2022/10/19 03:39:21;;;;;;;;;;;;;;;-144.99;88.65;52415.47;5063325;28;19981;-74
2022/10/19 03:41:48;;;;;;;;;;;;;;;-144.99;88.56;52427.72;5068476;28;19929;-73
2022/10/19 03:44:14;;;;;;;;;;;;;;;-144.99;88.53;52448.09;5067869;28;20621;-73
2022/10/19 03:46:42;;;;;;;;;;;;;;;-144.99;88.50;52419.56;5064321;28;19951;-70
2022/10/19 03:49:08;;;;;;;;;;;;;;;-144.99;88.39;52407.31;5066187;28;19939;-69
2022/10/19 03:51:35;;;;;;;;;;;;;;;-144.99;88.37;52413.44;5066217;28;19999;-70
2022/10/19 03:54:03;;;;;;;;;;;;;;;-144.99;88.32;52429.75;5062298;28;19958;-70
2022/10/19 03:56:30;;;;;;;;;;;;;;;-144.99;88.61;52419.56;5065924;28;19932;-73
2022/10/19 03:58:57;;;;;;;;;;;;;;;-144.99;88.76;52407.31;5063639;28;20397;-73
2022/10/19 04:01:25;;;;;;;;;;;;;;;-144.99;89.15;52468.47;5061156;28;19928;-72
2022/10/19 04:03:54;;;;;;;;;;;;;;;-144.99;89.12;52423.63;5069161;28;19931;-73
2022/10/19 04:06:22;;;;;;;;;;;;;;;-144.99;89.18;52468.47;5065949;28;19943;-73
2022/10/19 04:08:49;;;;;;;;;;;;;;;-144.99;89.08;52419.56;5056798;28;19967;-72
2022/10/19 04:11:20;;;;;;;;;;;;;;;-144.99;89.02;52448.09;5069061;28;20430;-70
2022/10/19 04:13:48;;;;;;;;;;;;;;;-144.99;88.90;52407.31;5068722;28;19924;-70
2022/10/19 04:16:14;;;;;;;;;;;;;;;-144.99;88.79;52435.88;5068262;28;19951;-73
2022/10/19 04:18:40;;;;;;;;;;;;;;;-144.99;88.65;52431.78;5058705;28;19961;-73
2022/10/19 04:21:19;;;;;;;;;;;;;;;-144.99;88.56;52403.25;5067207;28;19950;-73
2022/10/19 04:23:45;;;;;;;;;;;;;;;-144.99;89.09;52431.78;5068687;28;19943;-74
2022/10/19 04:26:11;;;;;;;;;;;;;;;-144.99;89.93;52441.97;5070127;28;19924;-73
2022/10/19 04:28:38;;;;;;;;;;;;;;;-144.99;90.49;52423.63;5101059;22;19955;-76
2022/10/19 04:31:05;;;;;;;;;;;;;;;-144.99;91.49;52419.56;5076220;28;19935;-78
2022/10/19 04:33:31;;;;;;;;;;;;;;;-144.99;91.80;52407.31;5082669;28;19924;-77
2022/10/19 04:35:58;;;;;;;;;;;;;;;-144.99;91.15;52427.72;5083332;28;19973;-78
2022/10/19 04:38:26;;;;;;;;;;;;;;;-144.99;91.25;52435.88;5075011;28;19959;-80
2022/10/19 04:40:52;;;;;;;;;;;;;;;-144.99;91.02;52448.09;5068543;28;19955;-80
2022/10/19 04:43:19;;;;;;;;;;;;;;;-144.99;91.12;52419.56;5073748;28;19943;-78
2022/10/19 04:45:45;;;;;;;;;;;;;;;-144.99;91.19;52439.94;5074061;28;19925;-78
2022/10/19 04:48:11;;;;;;;;;;;;;;;-144.99;91.25;52415.47;5078158;28;20045;-77
2022/10/19 04:50:38;;;;;;;;;;;;;;;-144.99;91.32;52407.31;5063173;28;19950;-75
2022/10/19 04:53:04;;;;;;;;;;;;;;;-144.99;91.65;52395.09;5058735;28;19944;-76
2022/10/19 04:55:32;;;;;;;;;;;;;;;-144.99;91.46;52423.63;5076995;28;19985;-75
2022/10/19 04:57:58;;;;;;;;;;;;;;;-144.99;91.68;52407.31;5088007;28;19958;-76
2022/10/19 05:00:25;;;;;;;;;;;;;;;-144.99;90.90;52429.75;5071498;28;20305;-77
2022/10/19 05:02:51;;;;;;;;;;;;;;;-144.99;90.83;52448.09;4361215;28;10000732;-78
2022/10/19 05:05:17;;;;;;;;;;;;;;;-144.99;90.85;52435.88;5057564;28;20032;-80
2022/10/19 05:07:44;;;;;;;;;;;;;;;-144.99;90.41;52403.25;5071450;28;20018;-77
2022/10/19 05:10:13;;;;;;;;;;;;;;;-144.99;89.97;52456.25;5061701;28;19925;-79
2022/10/19 05:12:41;;;;;;;;;;;;;;;-144.99;89.44;52444.03;5074067;28;19966;-78
2022/10/19 05:15:08;;;;;;;;;;;;;;;-144.99;89.14;52403.25;5073703;28;19959;-79
2022/10/19 05:17:34;;;;;;;;;;;;;;;-144.99;88.77;52399.19;5069683;28;20291;-78
2022/10/19 05:20:00;;;;;;;;;;;;;;;-144.99;88.58;52427.72;5077910;28;19965;-79
2022/10/19 05:22:27;;;;;;;;;;;;;;;-144.99;88.65;52407.31;5060349;28;19939;-78
2022/10/19 05:24:53;;;;;;;;;;;;;;;-144.99;88.67;52444.03;5072465;28;19947;-79
2022/10/19 05:27:19;;;;;;;;;;;;;;;-144.99;88.64;52427.72;5064023;28;19928;-80
2022/10/19 05:29:47;;;;;;;;;;;;;;;-144.99;88.44;52444.03;5060225;28;19973;-79
2022/10/19 05:32:13;;;;;;;;;;;;;;;-144.99;88.41;52415.47;5067603;28;19969;-81
2022/10/19 05:34:40;;;;;;;;;;;;;;;-144.99;88.47;52403.25;5069487;28;19929;-79
2022/10/19 05:37:07;;;;;;;;;;;;;;;-144.99;88.55;52395.09;5069550;28;20039;-80
2022/10/19 05:39:33;;;;;;;;;;;;;;;-144.99;88.63;52425.66;5074020;28;19970;-81
2022/10/19 05:41:59;;;;;;;;;;;;;;;-144.99;88.69;52427.72;5063724;28;20436;-79
2022/10/19 05:44:26;;;;;;;;;;;;;;;-144.99;88.82;52399.19;5073777;28;19928;-81
2022/10/19 05:46:53;;;;;;;;;;;;;;;-144.99;88.88;52419.56;5080646;28;20453;-80
2022/10/19 05:49:21;;;;;;;;;;;;;;;-144.99;89.25;52431.78;5081407;28;19931;-80
2022/10/19 05:51:47;;;;;;;;;;;;;;;-144.99;89.22;52417.53;5068383;28;19943;-79
2022/10/19 05:54:14;;;;;;;;;;;;;;;-144.99;89.42;52419.56;5072074;28;19925;-79
2022/10/19 05:56:41;;;;;;;;;;;;;;;-144.99;89.30;52427.72;5069907;28;19991;-80
2022/10/19 05:59:10;;;;;;;;;;;;;;;-144.99;89.30;52399.19;5069239;28;19972;-81
2022/10/19 06:01:36;;;;;;;;;;;;;;;-144.99;89.46;52452.16;5060667;28;19929;-79
2022/10/19 06:04:06;;;;;;;;;;;;;;;-144.99;89.67;52403.25;5055927;28;19928;-78
2022/10/19 06:06:32;;;;;;;;;;;;;;;-144.99;89.72;52448.09;5055146;28;19943;-78
2022/10/19 06:08:59;;;;;;;;;;;;;;;-144.99;89.69;52490.91;5065781;28;19963;-80
2022/10/19 06:11:26;;;;;;;;;;;;;;;-144.99;89.78;52407.31;5069901;28;19935;-78
2022/10/19 06:13:54;;;;;;;;;;;;;;;-144.99;89.74;52407.31;5058004;28;19928;-80
2022/10/19 06:16:21;;;;;;;;;;;;;;;-144.99;89.79;52391.03;5056916;28;19960;-77
2022/10/19 06:18:48;;;;;;;;;;;;;;;-144.99;89.73;52399.19;5064512;28;19931;-78
2022/10/19 06:21:16;;;;;;;;;;;;;;;-144.99;89.65;52403.25;5062247;28;19935;-79
2022/10/19 06:23:42;;;;;;;;;;;;;;;-144.99;89.63;52395.09;5067970;28;20330;-78
2022/10/19 06:26:10;;;;;;;;;;;;;;;-144.99;89.55;52399.19;5067631;28;19950;-79
2022/10/19 06:28:37;;;;;;;;;;;;;;;-144.99;89.53;52433.81;5064165;28;19933;-79
2022/10/19 06:31:03;;;;;;;;;;;;;;;-144.99;89.53;52425.66;5064660;28;19943;-77
2022/10/19 06:33:30;;;;;;;;;;;;;;;-144.99;89.30;52448.09;5065432;28;20284;-79
2022/10/19 06:35:56;;;;;;;;;;;;;;;-144.99;90.05;52423.63;5070593;28;20472;-78
2022/10/19 06:38:24;;;;;;;;;;;;;;;-144.99;89.99;52419.56;5059815;28;19924;-79
2022/10/19 06:40:50;;;;;;;;;;;;;;;-144.99;89.77;52399.19;5066069;28;19951;-80
2022/10/19 06:43:17;;;;;;;;;;;;;;;-144.99;89.58;52407.31;5065067;28;19930;-79
2022/10/19 06:45:43;;;;;;;;;;;;;;;-144.99;89.35;52395.09;5064452;28;20159;-79
2022/10/19 06:48:09;;;;;;;;;;;;;;;-144.99;89.35;52386.94;5055062;28;19967;-78
2022/10/19 06:50:36;;;;;;;;;;;;;;;-144.99;89.24;52448.09;4712210;28;10000075;-78
2022/10/19 06:53:02;;;;;;;;;;;;;;;-144.99;88.95;52439.94;5064849;28;19965;-78
2022/10/19 06:55:30;;;;;;;;;;;;;;;-144.99;88.87;52415.47;5066211;28;20377;-80
2022/10/19 06:57:57;;;;;;;;;;;;;;;-144.99;88.74;52399.19;5066974;28;19975;-78
2022/10/19 07:00:24;;;;;;;;;;;;;;;-144.99;88.39;52397.13;5065142;28;19985;-79
2022/10/19 07:02:50;;;;;;;;;;;;;;;-144.99;88.16;52411.41;5073495;28;19942;-79
2022/10/19 07:05:16;;;;;;;;;;;;;;;-144.99;87.16;52350.25;5060524;28;19964;-80
2022/10/19 07:07:43;;;;;;;;;;;;;;;-144.99;85.87;52415.47;5071522;28;19948;-80
2022/10/19 07:10:10;;;;;;;;;;;;;;;-144.99;84.08;52395.09;5061318;28;19939;-81
2022/10/19 07:12:37;;;;;;;;;;;;;;;-144.99;83.71;52350.25;5069343;28;19945;-80
2022/10/19 07:15:04;;;;;;;;;;;;;;;-144.99;81.67;52366.56;5065208;28;19947;-78
2022/10/19 07:17:31;;;;;;;;;;;;;;;-144.99;80.99;52415.47;5059310;28;20344;-78
2022/10/19 07:19:57;;;;;;;;;;;;;;;-144.99;79.58;52415.47;5068586;28;20033;-77
2022/10/19 07:22:23;;;;;;;;;;;;;;;-144.99;78.63;52378.78;5064052;28;20077;-80
2022/10/19 07:24:51;;;;;;;;;;;;;;;-144.99;78.29;52403.25;5063822;28;19963;-80
2022/10/19 07:27:17;;;;;;;;;;;;;;;-144.99;78.04;52388.97;5081737;28;19950;-82
2022/10/19 07:29:45;;;;;;;;;;;;;;;-144.99;77.51;52370.63;5087760;28;19992;-83
2022/10/19 07:32:11;;;;;;;;;;;;;;;-144.99;77.37;52417.53;5091662;28;19923;-82
2022/10/19 07:34:38;;;;;;;;;;;;;;;-144.99;77.40;52415.47;5075409;28;19935;-79
2022/10/19 07:37:04;;;;;;;;;;;;;;;-144.99;77.52;52372.69;5061257;28;19934;-79
2022/10/19 07:39:30;;;;;;;;;;;;;;;-144.99;76.98;52378.78;5066975;28;19996;-80
2022/10/19 07:41:57;;;;;;;;;;;;;;;-144.99;76.16;52360.44;5071518;28;19943;-84
2022/10/19 07:44:23;;;;;;;;;;;;;;;-144.99;74.83;52348.22;5091087;28;19963;-83
2022/10/19 07:46:51;;;;;;;;;;;;;;;-144.99;74.31;52366.56;5076388;28;19959;-81
2022/10/19 07:49:17;;;;;;;;;;;;;;;-144.99;73.78;52399.19;5074932;28;20452;-79
2022/10/19 07:51:44;;;;;;;;;;;;;;;-144.99;72.19;52331.91;5064014;28;19929;-79
2022/10/19 07:54:10;;;;;;;;;;;;;;;-144.99;70.68;52391.03;5068873;28;19934;-80
2022/10/19 07:56:37;;;;;;;;;;;;;;;-144.99;69.82;52338.03;5071817;28;19924;-80
2022/10/19 07:59:04;;;;;;;;;;;;;;;-144.99;67.83;52338.03;5070606;28;20388;-80
2022/10/19 08:01:31;;;;;;;;;;;;;;;-144.99;67.09;52340.06;5071428;28;20121;-80
2022/10/19 08:04:00;;;;;;;;;;;;;;;-144.99;66.71;52382.88;5070592;28;20350;-81
2022/10/19 08:06:26;;;;;;;;;;;;;;;-144.99;66.75;52346.19;5069753;28;19962;-81
2022/10/19 08:08:53;;;;;;;;;;;;;;;-144.99;66.53;52329.88;5068065;28;19970;-81
2022/10/19 08:11:21;;;;;;;;;;;;;;;-144.99;66.17;52354.34;5069433;28;19924;-80
2022/10/19 08:13:48;;;;;;;;;;;;;;;-144.99;66.07;52374.72;5061254;28;20344;-79
2022/10/19 08:16:22;;;;;;;;;;;;;;;-144.99;65.90;52321.72;5073506;28;20482;-82
2022/10/19 08:18:49;;;;;;;;;;;;;;;-144.99;66.44;52391.03;5074121;28;20051;-79
2022/10/19 08:21:17;;;;;;;;;;;;;;;-144.99;66.53;52374.72;5073488;28;19925;-80
2022/10/19 08:23:43;;;;;;;;;;;;;;;-144.99;66.68;52368.59;5086302;28;19942;-79
2022/10/19 08:26:10;;;;;;;;;;;;;;;-144.99;66.10;52360.44;5074781;28;20383;-81
2022/10/19 08:28:36;;;;;;;;;;;;;;;-144.99;65.33;52350.25;5081388;28;20053;-83
2022/10/19 08:31:08;;;;;;;;;;;;;;;-144.99;64.82;52354.34;5091583;28;20000;-88
2022/10/19 08:33:35;;;;;;;;;;;;;;;-144.99;64.10;52364.53;5073220;28;19925;-81
2022/10/19 08:36:04;;;;;;;;;;;;;;;-144.99;61.96;52301.34;5075143;28;20046;-80
2022/10/19 08:38:31;;;;;;;;;;;;;;;-144.99;59.89;52350.25;5066237;28;20012;-81
2022/10/19 08:40:58;;;;;;;;;;;;;;;-144.99;58.30;52352.28;5069626;28;19929;-80
2022/10/19 08:43:29;;;;;;;;;;;;;;;-144.99;57.61;52297.25;5064649;28;20510;-80
2022/10/19 08:46:01;;;;;;;;;;;;;;;-144.99;56.91;52305.41;5073443;28;19932;-81
2022/10/19 08:48:28;;;;;;;;;;;;;;;-144.99;55.33;52313.56;5071779;28;19932;-80
2022/10/19 08:50:56;;;;;;;;;;;;;;;-144.99;54.45;52297.25;5083829;28;20003;-81
2022/10/19 08:53:26;;;;;;;;;;;;;;;-144.99;53.15;52276.88;5070812;28;19950;-80
2022/10/19 08:56:01;;;;;;;;;;;;;;;-144.99;52.11;52285.03;5075129;28;20310;-80
2022/10/19 08:58:42;;;;;;;;;;;;;;;-144.99;51.36;52289.13;5086833;28;19932;-79
2022/10/19 09:01:14;;;;;;;;;;;;;;;-144.99;51.96;52325.81;5080949;28;19928;-80
2022/10/19 09:03:45;;;;;;;;;;;;;;;-144.99;52.71;52313.56;5069644;28;19944;-81
2022/10/19 09:06:20;;;;;;;;;;;;;;;-144.99;52.37;52289.13;5071616;28;20018;-80
2022/10/19 09:08:47;;;;;;;;;;;;;;;-144.99;52.93;52346.19;5090534;28;19966;-79
2022/10/19 09:11:18;;;;;;;;;;;;;;;-144.99;52.89;52342.09;5083992;28;19939;-80
2022/10/19 09:13:46;;;;;;;;;;;;;;;-144.99;53.59;52384.91;5072426;28;19929;-79
2022/10/19 09:16:13;;;;;;;;;;;;;;;-144.99;53.90;52342.09;5070874;28;19964;-79
2022/10/19 09:18:40;;;;;;;;;;;;;;;-144.99;54.53;52303.38;5069930;28;20016;-80
2022/10/19 09:21:11;;;;;;;;;;;;;;;-144.99;54.51;52321.72;5069887;28;19963;-79
2022/10/19 09:23:39;;;;;;;;;;;;;;;-144.99;53.22;52354.34;5060425;28;19940;-82
2022/10/19 09:26:10;;;;;;;;;;;;;;;-144.99;52.79;52346.19;5065023;28;19932;-82
2022/10/19 09:28:52;;;;;;;;;;;;;;;-144.99;52.04;52299.31;5083230;28;19933;-84
2022/10/19 09:31:22;;;;;;;;;;;;;;;-144.99;52.06;52283.00;5091426;28;19935;-84
2022/10/19 09:33:51;;;;;;;;;;;;;;;-144.99;49.66;52244.28;5077384;28;19939;-80
2022/10/19 09:36:18;;;;;;;;;;;;;;;-144.99;47.97;52264.66;5077870;28;19924;-78
2022/10/19 09:38:44;;;;;;;;;;;;;;;-144.99;47.12;52219.81;5082669;28;19924;-79
2022/10/19 09:41:16;;;;;;;;;;;;;;;-144.99;44.96;52225.94;5087159;28;19973;-78
2022/10/19 09:43:49;;;;;;;;;;;;;;;-144.99;43.39;52211.66;5072983;28;20434;-81
2022/10/19 09:46:24;;;;;;;;;;;;;;;-144.99;42.45;52179.06;5069529;28;19935;-79
2022/10/19 09:48:51;;;;;;;;;;;;;;;-144.99;40.08;52134.22;5063774;28;20406;-77
2022/10/19 09:51:18;;;;;;;;;;;;;;;-144.99;39.06;52148.47;5065225;28;19932;-79
2022/10/19 09:53:45;;;;;;;;;;;;;;;-144.99;38.00;52115.88;5071081;28;19934;-79
2022/10/19 09:56:18;;;;;;;;;;;;;;;-144.99;36.88;52121.97;5066677;28;20461;-81
2022/10/19 09:58:47;;;;;;;;;;;;;;;-144.99;36.15;52109.75;5070925;28;19952;-79
2022/10/19 10:01:29;;;;;;;;;;;;;;;-144.99;35.77;52170.91;5082751;28;20253;-79
2022/10/19 10:04:04;;;;;;;;;;;;;;;-144.99;36.33;52146.44;5067749;28;19929;-83
2022/10/19 10:06:31;;;;;;;;;;;;;;;-144.99;37.70;52215.75;5065018;28;20030;-82
2022/10/19 10:08:57;;;;;;;;;;;;;;;-144.99;38.31;52166.81;5078197;28;19927;-79
2022/10/19 10:11:26;;;;;;;;;;;;;;;-144.99;38.40;52150.53;5073333;28;20345;-82
2022/10/19 10:13:54;;;;;;;;;;;;;;;-144.99;37.63;52093.44;5072792;28;19929;-81
2022/10/19 10:16:22;;;;;;;;;;;;;;;-144.99;36.09;52050.66;5073896;28;20112;-83
2022/10/19 10:18:51;;;;;;;;;;;;;;;-144.99;34.52;52003.78;5087157;28;19928;-81
2022/10/19 10:21:20;;;;;;;;;;;;;;;-144.99;32.95;51975.25;5087865;28;19932;-80
2022/10/19 10:23:58;;;;;;;;;;;;;;;-144.99;32.13;51965.06;5072624;28;19925;-83
2022/10/19 10:26:25;;;;;;;;;;;;;;;-144.99;30.96;51971.16;5090756;28;19940;-85
2022/10/19 10:28:52;;;;;;;;;;;;;;;-144.99;30.53;51928.38;5083338;28;19912;-83
2022/10/19 10:31:22;;;;;;;;;;;;;;;-144.99;29.90;51918.19;5080310;28;19930;-79
2022/10/19 10:33:54;;;;;;;;;;;;;;;-144.99;29.72;51910.03;5070854;28;19929;-81
2022/10/19 10:36:23;;;;;;;;;;;;;;;-144.99;29.51;51903.91;5071390;28;19931;-82
2022/10/19 10:38:51;;;;;;;;;;;;;;;-144.99;29.08;51877.44;5067071;28;20320;-80
2022/10/19 10:41:19;;;;;;;;;;;;;;;-144.99;29.85;52003.78;5062919;28;20271;-80
2022/10/19 10:43:52;;;;;;;;;;;;;;;-144.99;30.54;52126.06;5071949;28;19928;-80
2022/10/19 10:46:21;;;;;;;;;;;;;;;-144.99;31.03;52007.84;5065292;28;19924;-82
2022/10/19 10:48:55;;;;;;;;;;;;;;;-144.99;30.94;52003.78;5071663;28;20384;-85
2022/10/19 10:51:23;;;;;;;;;;;;;;;-144.99;30.16;51954.88;5076543;28;19933;-82
2022/10/19 10:53:49;;;;;;;;;;;;;;;-144.99;29.83;51981.38;5073912;28;20172;-81
2022/10/19 10:56:21;;;;;;;;;;;;;;;-144.99;30.36;52113.84;5054592;28;19928;-80
2022/10/19 10:58:50;;;;;;;;;;;;;;;-144.99;30.12;51946.72;5067549;28;20376;-79
2022/10/19 11:01:19;;;;;;;;;;;;;;;-144.99;30.10;51934.50;5067318;28;20376;-81
2022/10/19 11:03:50;;;;;;;;;;;;;;;-144.99;29.75;51950.78;5063763;28;19935;-81
2022/10/19 11:06:21;;;;;;;;;;;;;;;-144.99;29.49;51861.13;5062368;28;19973;-81
2022/10/19 11:08:49;;;;;;;;;;;;;;;-144.99;28.93;51891.69;5083406;28;19924;-79
2022/10/19 11:11:17;;;;;;;;;;;;;;;-144.99;28.48;51848.91;5068606;28;20399;-81
2022/10/19 11:13:48;;;;;;;;;;;;;;;-144.99;28.15;52032.31;5068117;28;19951;-80
2022/10/19 11:16:16;;;;;;;;;;;;;;;-144.99;28.34;51910.03;5068469;28;19929;-83
2022/10/19 11:18:44;;;;;;;;;;;;;;;-144.99;28.13;51905.97;5071320;28;20034;-82
2022/10/19 11:21:12;;;;;;;;;;;;;;;-144.99;28.01;51946.72;5071038;28;20422;-81
2022/10/19 11:23:49;;;;;;;;;;;;;;;-144.99;27.94;51944.69;5085026;28;19976;-81
2022/10/19 11:26:24;;;;;;;;;;;;;;;-144.99;27.43;51942.63;5092029;28;19913;-79
2022/10/19 11:29:02;;;;;;;;;;;;;;;-144.99;27.48;51893.72;5063311;28;19929;-79
2022/10/19 11:31:35;;;;;;;;;;;;;;;-144.99;27.25;51914.09;5080885;28;19928;-78
2022/10/19 11:34:05;;;;;;;;;;;;;;;-144.99;27.12;51869.28;5078438;28;19929;-79
2022/10/19 11:36:37;;;;;;;;;;;;;;;-144.99;26.68;51848.91;5068717;28;19929;-78
2022/10/19 11:39:09;;;;;;;;;;;;;;;-144.99;27.10;51832.59;5068690;28;20311;-78
2022/10/19 11:41:38;;;;;;;;;;;;;;;-144.99;26.75;51820.38;5054062;28;19939;-77
2022/10/19 11:44:19;;;;;;;;;;;;;;;-144.99;26.44;51828.50;5078793;28;20424;-80
2022/10/19 11:46:50;;;;;;;;;;;;;;;-144.99;26.47;51820.38;5064890;28;19924;-81
2022/10/19 11:49:26;;;;;;;;;;;;;;;-144.99;26.80;51852.97;5071372;28;19940;-79
2022/10/19 11:51:56;;;;;;;;;;;;;;;-144.99;27.20;51836.66;5076721;28;20334;-78
2022/10/19 11:54:32;;;;;;;;;;;;;;;-144.99;26.97;51842.78;5073698;28;19955;-80
2022/10/19 11:57:03;;;;;;;;;;;;;;;-144.99;26.70;51885.56;5068265;28;19925;-79
2022/10/19 11:59:35;;;;;;;;;;;;;;;-144.99;26.52;51840.75;5077027;28;20314;-81
2022/10/19 12:02:10;;;;;;;;;;;;;;;-144.99;27.01;52028.22;5069498;28;20015;-76
2022/10/19 12:04:51;;;;;;;;;;;;;;;-144.99;27.78;51922.25;5070765;28;19939;-80
2022/10/19 12:07:28;;;;;;;;;;;;;;;-144.99;27.53;51987.47;5063827;28;20382;-80
2022/10/19 12:10:02;;;;;;;;;;;;;;;-144.99;27.67;52036.38;5063511;28;20433;-79
2022/10/19 12:12:31;;;;;;;;;;;;;;;-144.99;27.71;51891.69;5078581;28;20253;-80
2022/10/19 12:15:05;;;;;;;;;;;;;;;-144.99;27.17;51861.13;5068290;28;19935;-80
2022/10/19 12:17:35;;;;;;;;;;;;;;;-144.99;27.09;52020.09;5070734;28;20302;-82
2022/10/19 12:20:03;;;;;;;;;;;;;;;-144.99;27.78;51895.75;5084320;28;19919;-81
2022/10/19 12:22:30;;;;;;;;;;;;;;;-144.99;27.66;52036.38;5094144;28;19929;-82
2022/10/19 12:25:00;;;;;;;;;;;;;;;-144.99;28.18;52093.44;5085043;28;19938;-77
2022/10/19 12:27:29;;;;;;;;;;;;;;;-144.99;28.45;52174.97;5065781;28;19929;-81
2022/10/19 12:29:58;;;;;;;;;;;;;;;-144.99;29.68;52199.44;5066574;28;19959;-79
2022/10/19 12:32:24;;;;;;;;;;;;;;;-144.99;31.06;52248.34;5058953;28;19925;-79